sensor_id;sensor_type;location;lat;lon;timestamp;P1;durP1;ratioP1;P2;durP2;ratioP2
28373;SDS011;15616;40.148;-102.718;2022-09-09T00:00:20;8.48;;;3.97;;
28373;SDS011;15616;40.148;-102.718;2022-09-09T00:02:49;7.80;;;4.10;;
28373;SDS011;15616;40.148;-102.718;2022-09-09T00:05:42;10.00;;;4.40;;
28373;SDS011;15616;40.148;-102.718;2022-09-09T00:08:19;9.73;;;4.45;;
28373;SDS011;15616;40.148;-102.718;2022-09-09T00:10:58;6.35;;;3.90;;
28373;SDS011;15616;40.148;-102.718;2022-09-09T00:13:32;7.80;;;4.40;;
28373;SDS011;15616;40.148;-102.718;2022-09-09T00:21:30;8.32;;;3.88;;
28373;SDS011;15616;40.148;-102.718;2022-09-09T00:24:00;7.47;;;4.20;;
28373;SDS011;15616;40.148;-102.718;2022-09-09T00:26:38;6.47;;;4.30;;
28373;SDS011;15616;40.148;-102.718;2022-09-09T00:29:23;9.38;;;4.32;;
28373;SDS011;15616;40.148;-102.718;2022-09-09T00:32:00;7.85;;;3.72;;
28373;SDS011;15616;40.148;-102.718;2022-09-09T00:34:36;7.57;;;4.25;;
28373;SDS011;15616;40.148;-102.718;2022-09-09T00:37:31;7.28;;;4.03;;
28373;SDS011;15616;40.148;-102.718;2022-09-09T00:40:00;7.15;;;3.88;;
28373;SDS011;15616;40.148;-102.718;2022-09-09T00:42:37;6.10;;;3.97;;
28373;SDS011;15616;40.148;-102.718;2022-09-09T00:45:54;8.05;;;4.22;;
28373;SDS011;15616;40.148;-102.718;2022-09-09T00:48:11;5.63;;;3.90;;
28373;SDS011;15616;40.148;-102.718;2022-09-09T00:50:56;7.32;;;3.92;;
28373;SDS011;15616;40.148;-102.718;2022-09-09T00:56:41;7.97;;;3.92;;
28373;SDS011;15616;40.148;-102.718;2022-09-09T01:01:56;5.72;;;3.78;;
28373;SDS011;15616;40.148;-102.718;2022-09-09T01:04:27;5.30;;;3.83;;
28373;SDS011;15616;40.148;-102.718;2022-09-09T01:07:16;6.40;;;3.90;;
28373;SDS011;15616;40.148;-102.718;2022-09-09T01:09:50;7.97;;;3.85;;
28373;SDS011;15616;40.148;-102.718;2022-09-09T01:12:33;6.70;;;3.90;;
28373;SDS011;15616;40.148;-102.718;2022-09-09T01:15:17;6.07;;;3.97;;
28373;SDS011;15616;40.148;-102.718;2022-09-09T01:31:05;7.70;;;3.90;;
28373;SDS011;15616;40.148;-102.718;2022-09-09T01:33:34;7.20;;;3.95;;
28373;SDS011;15616;40.148;-102.718;2022-09-09T01:38:37;6.47;;;3.90;;
28373;SDS011;15616;40.148;-102.718;2022-09-09T01:41:03;5.95;;;3.63;;
28373;SDS011;15616;40.148;-102.718;2022-09-09T01:43:30;6.30;;;3.80;;
28373;SDS011;15616;40.148;-102.718;2022-09-09T01:45:58;7.03;;;3.88;;
28373;SDS011;15616;40.148;-102.718;2022-09-09T01:48:25;8.60;;;3.70;;
28373;SDS011;15616;40.148;-102.718;2022-09-09T01:50:52;7.93;;;4.32;;
28373;SDS011;15616;40.148;-102.718;2022-09-09T01:53:19;7.25;;;4.00;;
28373;SDS011;15616;40.148;-102.718;2022-09-09T01:56:30;7.97;;;3.70;;
28373;SDS011;15616;40.148;-102.718;2022-09-09T01:58:45;8.15;;;3.95;;
28373;SDS011;15616;40.148;-102.718;2022-09-09T02:01:21;5.85;;;3.67;;
28373;SDS011;15616;40.148;-102.718;2022-09-09T02:03:58;6.82;;;3.90;;
28373;SDS011;15616;40.148;-102.718;2022-09-09T02:06:39;6.85;;;3.53;;
28373;SDS011;15616;40.148;-102.718;2022-09-09T02:09:06;9.63;;;3.97;;
28373;SDS011;15616;40.148;-102.718;2022-09-09T02:11:35;5.97;;;3.92;;
28373;SDS011;15616;40.148;-102.718;2022-09-09T02:14:05;7.78;;;3.70;;
28373;SDS011;15616;40.148;-102.718;2022-09-09T02:16:52;8.35;;;3.95;;
28373;SDS011;15616;40.148;-102.718;2022-09-09T02:19:32;8.48;;;3.88;;
28373;SDS011;15616;40.148;-102.718;2022-09-09T02:22:00;6.43;;;3.38;;
28373;SDS011;15616;40.148;-102.718;2022-09-09T02:24:27;7.10;;;3.80;;
28373;SDS011;15616;40.148;-102.718;2022-09-09T02:26:58;5.70;;;3.50;;
28373;SDS011;15616;40.148;-102.718;2022-09-09T02:29:30;6.03;;;3.65;;
28373;SDS011;15616;40.148;-102.718;2022-09-09T02:32:00;6.33;;;3.57;;
28373;SDS011;15616;40.148;-102.718;2022-09-09T02:34:29;7.32;;;3.67;;
28373;SDS011;15616;40.148;-102.718;2022-09-09T02:36:59;6.72;;;3.75;;
28373;SDS011;15616;40.148;-102.718;2022-09-09T02:39:27;6.30;;;3.60;;
28373;SDS011;15616;40.148;-102.718;2022-09-09T02:41:53;6.03;;;3.95;;
28373;SDS011;15616;40.148;-102.718;2022-09-09T02:44:22;6.13;;;3.70;;
28373;SDS011;15616;40.148;-102.718;2022-09-09T02:49:36;7.88;;;4.00;;
28373;SDS011;15616;40.148;-102.718;2022-09-09T02:55:17;6.95;;;3.70;;
28373;SDS011;15616;40.148;-102.718;2022-09-09T02:58:09;5.45;;;3.38;;
28373;SDS011;15616;40.148;-102.718;2022-09-09T03:00:37;7.32;;;3.95;;
28373;SDS011;15616;40.148;-102.718;2022-09-09T03:03:05;8.18;;;3.85;;
28373;SDS011;15616;40.148;-102.718;2022-09-09T03:05:34;6.22;;;3.70;;
28373;SDS011;15616;40.148;-102.718;2022-09-09T03:08:01;7.30;;;3.80;;
28373;SDS011;15616;40.148;-102.718;2022-09-09T03:10:28;6.03;;;3.50;;
28373;SDS011;15616;40.148;-102.718;2022-09-09T03:12:54;6.45;;;3.58;;
28373;SDS011;15616;40.148;-102.718;2022-09-09T03:15:20;5.57;;;3.58;;
28373;SDS011;15616;40.148;-102.718;2022-09-09T03:17:47;6.75;;;3.60;;
28373;SDS011;15616;40.148;-102.718;2022-09-09T03:20:12;7.38;;;3.53;;
28373;SDS011;15616;40.148;-102.718;2022-09-09T03:22:39;6.10;;;3.67;;
28373;SDS011;15616;40.148;-102.718;2022-09-09T03:25:05;5.47;;;3.38;;
28373;SDS011;15616;40.148;-102.718;2022-09-09T03:27:31;6.38;;;3.55;;
28373;SDS011;15616;40.148;-102.718;2022-09-09T03:29:57;6.57;;;3.35;;
28373;SDS011;15616;40.148;-102.718;2022-09-09T03:32:24;5.93;;;3.30;;
28373;SDS011;15616;40.148;-102.718;2022-09-09T03:34:51;6.78;;;3.40;;
28373;SDS011;15616;40.148;-102.718;2022-09-09T03:37:20;5.80;;;3.53;;
28373;SDS011;15616;40.148;-102.718;2022-09-09T03:39:47;5.55;;;3.33;;
28373;SDS011;15616;40.148;-102.718;2022-09-09T03:42:14;6.28;;;3.50;;
28373;SDS011;15616;40.148;-102.718;2022-09-09T03:44:44;6.00;;;3.50;;
28373;SDS011;15616;40.148;-102.718;2022-09-09T03:47:16;8.27;;;3.85;;
28373;SDS011;15616;40.148;-102.718;2022-09-09T03:49:43;7.47;;;3.58;;
28373;SDS011;15616;40.148;-102.718;2022-09-09T03:52:09;6.18;;;3.45;;
28373;SDS011;15616;40.148;-102.718;2022-09-09T03:54:35;6.68;;;3.92;;
28373;SDS011;15616;40.148;-102.718;2022-09-09T03:57:02;9.15;;;3.63;;
28373;SDS011;15616;40.148;-102.718;2022-09-09T03:59:28;6.50;;;3.60;;
28373;SDS011;15616;40.148;-102.718;2022-09-09T04:01:55;6.32;;;3.53;;
28373;SDS011;15616;40.148;-102.718;2022-09-09T04:04:22;7.18;;;3.35;;
28373;SDS011;15616;40.148;-102.718;2022-09-09T04:06:48;6.80;;;3.38;;
28373;SDS011;15616;40.148;-102.718;2022-09-09T04:09:14;7.50;;;3.70;;
28373;SDS011;15616;40.148;-102.718;2022-09-09T04:11:40;6.05;;;3.50;;
28373;SDS011;15616;40.148;-102.718;2022-09-09T04:14:06;5.63;;;3.40;;
28373;SDS011;15616;40.148;-102.718;2022-09-09T04:16:32;5.88;;;3.60;;
28373;SDS011;15616;40.148;-102.718;2022-09-09T04:18:59;7.13;;;3.60;;
28373;SDS011;15616;40.148;-102.718;2022-09-09T04:21:26;6.57;;;3.65;;
28373;SDS011;15616;40.148;-102.718;2022-09-09T04:23:52;6.43;;;3.30;;
28373;SDS011;15616;40.148;-102.718;2022-09-09T04:26:18;6.00;;;3.60;;
28373;SDS011;15616;40.148;-102.718;2022-09-09T04:28:45;7.13;;;3.50;;
28373;SDS011;15616;40.148;-102.718;2022-09-09T04:31:20;5.85;;;3.20;;
28373;SDS011;15616;40.148;-102.718;2022-09-09T04:33:51;6.55;;;3.70;;
28373;SDS011;15616;40.148;-102.718;2022-09-09T04:36:17;6.03;;;3.38;;
28373;SDS011;15616;40.148;-102.718;2022-09-09T04:38:45;5.93;;;3.20;;
28373;SDS011;15616;40.148;-102.718;2022-09-09T04:41:11;8.10;;;3.60;;
28373;SDS011;15616;40.148;-102.718;2022-09-09T04:43:38;7.10;;;3.53;;
28373;SDS011;15616;40.148;-102.718;2022-09-09T04:46:05;6.18;;;3.08;;
28373;SDS011;15616;40.148;-102.718;2022-09-09T04:48:31;5.80;;;3.38;;
28373;SDS011;15616;40.148;-102.718;2022-09-09T04:50:58;7.53;;;3.38;;
28373;SDS011;15616;40.148;-102.718;2022-09-09T04:53:30;4.88;;;2.75;;
28373;SDS011;15616;40.148;-102.718;2022-09-09T04:56:12;5.32;;;3.08;;
28373;SDS011;15616;40.148;-102.718;2022-09-09T04:58:40;5.03;;;3.13;;
28373;SDS011;15616;40.148;-102.718;2022-09-09T05:01:17;8.70;;;3.20;;
28373;SDS011;15616;40.148;-102.718;2022-09-09T05:03:44;4.95;;;3.13;;
28373;SDS011;15616;40.148;-102.718;2022-09-09T05:06:12;9.32;;;3.20;;
28373;SDS011;15616;40.148;-102.718;2022-09-09T05:08:40;6.13;;;3.40;;
28373;SDS011;15616;40.148;-102.718;2022-09-09T05:11:16;5.43;;;3.10;;
28373;SDS011;15616;40.148;-102.718;2022-09-09T05:13:44;5.78;;;3.00;;
28373;SDS011;15616;40.148;-102.718;2022-09-09T05:16:11;7.80;;;3.20;;
28373;SDS011;15616;40.148;-102.718;2022-09-09T05:18:38;6.35;;;3.17;;
28373;SDS011;15616;40.148;-102.718;2022-09-09T05:21:06;5.18;;;3.30;;
28373;SDS011;15616;40.148;-102.718;2022-09-09T05:23:33;8.20;;;3.30;;
28373;SDS011;15616;40.148;-102.718;2022-09-09T05:26:00;5.60;;;3.10;;
28373;SDS011;15616;40.148;-102.718;2022-09-09T05:28:26;8.18;;;3.00;;
28373;SDS011;15616;40.148;-102.718;2022-09-09T05:30:59;5.35;;;3.17;;
28373;SDS011;15616;40.148;-102.718;2022-09-09T05:33:32;7.47;;;3.10;;
28373;SDS011;15616;40.148;-102.718;2022-09-09T05:36:02;6.00;;;2.92;;
28373;SDS011;15616;40.148;-102.718;2022-09-09T05:38:30;5.72;;;3.00;;
28373;SDS011;15616;40.148;-102.718;2022-09-09T05:41:01;5.15;;;3.13;;
28373;SDS011;15616;40.148;-102.718;2022-09-09T05:43:28;7.03;;;3.20;;
28373;SDS011;15616;40.148;-102.718;2022-09-09T05:46:07;7.07;;;3.10;;
28373;SDS011;15616;40.148;-102.718;2022-09-09T05:48:36;6.53;;;3.10;;
28373;SDS011;15616;40.148;-102.718;2022-09-09T05:51:04;5.30;;;3.00;;
28373;SDS011;15616;40.148;-102.718;2022-09-09T05:53:32;7.03;;;2.97;;
28373;SDS011;15616;40.148;-102.718;2022-09-09T05:56:01;12.32;;;2.83;;
28373;SDS011;15616;40.148;-102.718;2022-09-09T05:58:34;5.93;;;3.05;;
28373;SDS011;15616;40.148;-102.718;2022-09-09T06:01:01;5.22;;;2.90;;
28373;SDS011;15616;40.148;-102.718;2022-09-09T06:03:35;6.85;;;2.88;;
28373;SDS011;15616;40.148;-102.718;2022-09-09T06:06:07;7.00;;;3.15;;
28373;SDS011;15616;40.148;-102.718;2022-09-09T06:08:34;6.75;;;2.90;;
28373;SDS011;15616;40.148;-102.718;2022-09-09T06:11:10;7.55;;;3.00;;
28373;SDS011;15616;40.148;-102.718;2022-09-09T06:13:41;6.30;;;3.42;;
28373;SDS011;15616;40.148;-102.718;2022-09-09T06:16:09;6.28;;;3.00;;
28373;SDS011;15616;40.148;-102.718;2022-09-09T06:18:36;6.25;;;3.08;;
28373;SDS011;15616;40.148;-102.718;2022-09-09T06:21:04;9.70;;;3.05;;
28373;SDS011;15616;40.148;-102.718;2022-09-09T06:23:32;6.60;;;3.05;;
28373;SDS011;15616;40.148;-102.718;2022-09-09T06:28:33;6.55;;;3.10;;
28373;SDS011;15616;40.148;-102.718;2022-09-09T06:31:03;5.35;;;2.92;;
28373;SDS011;15616;40.148;-102.718;2022-09-09T06:33:32;6.30;;;2.67;;
28373;SDS011;15616;40.148;-102.718;2022-09-09T06:36:07;9.25;;;3.13;;
28373;SDS011;15616;40.148;-102.718;2022-09-09T06:38:36;5.80;;;2.92;;
28373;SDS011;15616;40.148;-102.718;2022-09-09T06:41:02;6.75;;;3.03;;
28373;SDS011;15616;40.148;-102.718;2022-09-09T06:43:31;5.80;;;2.83;;
28373;SDS011;15616;40.148;-102.718;2022-09-09T06:46:01;9.75;;;2.83;;
28373;SDS011;15616;40.148;-102.718;2022-09-09T06:48:33;5.05;;;2.70;;
28373;SDS011;15616;40.148;-102.718;2022-09-09T06:51:03;7.15;;;3.03;;
28373;SDS011;15616;40.148;-102.718;2022-09-09T06:53:39;6.95;;;2.97;;
28373;SDS011;15616;40.148;-102.718;2022-09-09T06:58:41;6.55;;;2.65;;
28373;SDS011;15616;40.148;-102.718;2022-09-09T07:01:10;6.53;;;2.58;;
28373;SDS011;15616;40.148;-102.718;2022-09-09T07:03:39;5.75;;;2.85;;
28373;SDS011;15616;40.148;-102.718;2022-09-09T07:06:06;7.47;;;2.90;;
28373;SDS011;15616;40.148;-102.718;2022-09-09T07:08:32;6.47;;;3.30;;
28373;SDS011;15616;40.148;-102.718;2022-09-09T07:11:02;7.80;;;3.08;;
28373;SDS011;15616;40.148;-102.718;2022-09-09T07:13:30;6.25;;;2.90;;
28373;SDS011;15616;40.148;-102.718;2022-09-09T07:16:03;6.65;;;3.22;;
28373;SDS011;15616;40.148;-102.718;2022-09-09T07:18:33;4.63;;;2.70;;
28373;SDS011;15616;40.148;-102.718;2022-09-09T07:21:00;6.43;;;2.70;;
28373;SDS011;15616;40.148;-102.718;2022-09-09T07:23:28;8.55;;;3.08;;
28373;SDS011;15616;40.148;-102.718;2022-09-09T07:25:55;5.53;;;3.00;;
28373;SDS011;15616;40.148;-102.718;2022-09-09T07:28:21;6.20;;;3.13;;
28373;SDS011;15616;40.148;-102.718;2022-09-09T07:30:58;5.22;;;2.80;;
28373;SDS011;15616;40.148;-102.718;2022-09-09T07:33:27;5.82;;;2.80;;
28373;SDS011;15616;40.148;-102.718;2022-09-09T07:36:01;7.13;;;2.88;;
28373;SDS011;15616;40.148;-102.718;2022-09-09T07:38:37;6.78;;;2.92;;
28373;SDS011;15616;40.148;-102.718;2022-09-09T07:41:09;6.40;;;2.90;;
28373;SDS011;15616;40.148;-102.718;2022-09-09T07:43:45;6.25;;;2.80;;
28373;SDS011;15616;40.148;-102.718;2022-09-09T07:46:13;7.30;;;2.97;;
28373;SDS011;15616;40.148;-102.718;2022-09-09T07:48:44;6.90;;;2.70;;
28373;SDS011;15616;40.148;-102.718;2022-09-09T07:51:12;7.70;;;2.95;;
28373;SDS011;15616;40.148;-102.718;2022-09-09T07:53:42;8.63;;;2.70;;
28373;SDS011;15616;40.148;-102.718;2022-09-09T07:56:10;8.95;;;2.95;;
28373;SDS011;15616;40.148;-102.718;2022-09-09T07:58:38;5.90;;;2.72;;
28373;SDS011;15616;40.148;-102.718;2022-09-09T08:01:06;10.82;;;2.85;;
28373;SDS011;15616;40.148;-102.718;2022-09-09T08:03:37;9.25;;;2.90;;
28373;SDS011;15616;40.148;-102.718;2022-09-09T08:06:04;9.40;;;2.80;;
28373;SDS011;15616;40.148;-102.718;2022-09-09T08:08:32;7.85;;;2.92;;
28373;SDS011;15616;40.148;-102.718;2022-09-09T08:11:05;6.93;;;2.75;;
28373;SDS011;15616;40.148;-102.718;2022-09-09T08:13:35;5.40;;;3.08;;
28373;SDS011;15616;40.148;-102.718;2022-09-09T08:16:11;8.07;;;3.00;;
28373;SDS011;15616;40.148;-102.718;2022-09-09T08:18:39;11.55;;;3.20;;
28373;SDS011;15616;40.148;-102.718;2022-09-09T08:21:13;5.35;;;2.67;;
28373;SDS011;15616;40.148;-102.718;2022-09-09T08:23:42;7.70;;;2.90;;
28373;SDS011;15616;40.148;-102.718;2022-09-09T08:26:11;10.48;;;3.40;;
28373;SDS011;15616;40.148;-102.718;2022-09-09T08:28:51;8.40;;;2.97;;
28373;SDS011;15616;40.148;-102.718;2022-09-09T08:31:20;9.45;;;2.88;;
28373;SDS011;15616;40.148;-102.718;2022-09-09T08:33:48;7.43;;;3.30;;
28373;SDS011;15616;40.148;-102.718;2022-09-09T08:36:15;10.45;;;3.05;;
28373;SDS011;15616;40.148;-102.718;2022-09-09T08:38:43;10.00;;;3.03;;
28373;SDS011;15616;40.148;-102.718;2022-09-09T08:58:04;7.75;;;2.83;;
28373;SDS011;15616;40.148;-102.718;2022-09-09T09:00:57;7.40;;;3.05;;
28373;SDS011;15616;40.148;-102.718;2022-09-09T09:11:26;9.50;;;3.10;;
28373;SDS011;15616;40.148;-102.718;2022-09-09T09:14:00;14.27;;;3.35;;
28373;SDS011;15616;40.148;-102.718;2022-09-09T09:16:33;15.05;;;3.20;;
28373;SDS011;15616;40.148;-102.718;2022-09-09T09:19:19;11.15;;;3.13;;
28373;SDS011;15616;40.148;-102.718;2022-09-09T09:24:36;8.32;;;3.05;;
28373;SDS011;15616;40.148;-102.718;2022-09-09T09:27:18;12.80;;;3.28;;
28373;SDS011;15616;40.148;-102.718;2022-09-09T09:30:01;10.18;;;3.00;;
28373;SDS011;15616;40.148;-102.718;2022-09-09T09:32:38;10.50;;;3.40;;
28373;SDS011;15616;40.148;-102.718;2022-09-09T09:35:12;12.45;;;3.70;;
28373;SDS011;15616;40.148;-102.718;2022-09-09T09:37:39;7.78;;;2.83;;
28373;SDS011;15616;40.148;-102.718;2022-09-09T09:40:12;7.15;;;3.15;;
28373;SDS011;15616;40.148;-102.718;2022-09-09T09:42:50;13.52;;;3.60;;
28373;SDS011;15616;40.148;-102.718;2022-09-09T09:45:22;8.60;;;2.75;;
28373;SDS011;15616;40.148;-102.718;2022-09-09T09:48:00;13.90;;;3.40;;
28373;SDS011;15616;40.148;-102.718;2022-09-09T09:50:31;14.60;;;3.00;;
28373;SDS011;15616;40.148;-102.718;2022-09-09T09:53:02;12.73;;;3.30;;
28373;SDS011;15616;40.148;-102.718;2022-09-09T09:55:30;16.20;;;3.10;;
28373;SDS011;15616;40.148;-102.718;2022-09-09T09:58:05;10.98;;;3.10;;
28373;SDS011;15616;40.148;-102.718;2022-09-09T10:00:47;11.23;;;3.13;;
28373;SDS011;15616;40.148;-102.718;2022-09-09T10:03:22;10.35;;;3.10;;
28373;SDS011;15616;40.148;-102.718;2022-09-09T10:05:50;13.02;;;3.22;;
28373;SDS011;15616;40.148;-102.718;2022-09-09T10:08:16;7.82;;;2.72;;
28373;SDS011;15616;40.148;-102.718;2022-09-09T10:16:13;8.85;;;3.00;;
28373;SDS011;15616;40.148;-102.718;2022-09-09T10:18:59;13.50;;;2.95;;
28373;SDS011;15616;40.148;-102.718;2022-09-09T10:26:38;9.05;;;3.17;;
28373;SDS011;15616;40.148;-102.718;2022-09-09T10:32:24;9.95;;;3.05;;
28373;SDS011;15616;40.148;-102.718;2022-09-09T10:35:10;10.20;;;2.83;;
28373;SDS011;15616;40.148;-102.718;2022-09-09T10:40:59;12.82;;;2.85;;
28373;SDS011;15616;40.148;-102.718;2022-09-09T10:55:14;7.22;;;3.00;;
28373;SDS011;15616;40.148;-102.718;2022-09-09T11:00:31;19.38;;;3.35;;
28373;SDS011;15616;40.148;-102.718;2022-09-09T11:03:05;16.42;;;3.10;;
28373;SDS011;15616;40.148;-102.718;2022-09-09T11:08:06;9.00;;;2.97;;
28373;SDS011;15616;40.148;-102.718;2022-09-09T11:13:39;10.57;;;3.38;;
28373;SDS011;15616;40.148;-102.718;2022-09-09T11:19:35;9.00;;;3.17;;
28373;SDS011;15616;40.148;-102.718;2022-09-09T11:22:08;14.00;;;3.15;;
28373;SDS011;15616;40.148;-102.718;2022-09-09T11:24:44;13.30;;;3.38;;
28373;SDS011;15616;40.148;-102.718;2022-09-09T11:27:37;12.68;;;3.13;;
28373;SDS011;15616;40.148;-102.718;2022-09-09T11:36:43;13.35;;;2.92;;
28373;SDS011;15616;40.148;-102.718;2022-09-09T11:42:20;15.45;;;2.88;;
28373;SDS011;15616;40.148;-102.718;2022-09-09T11:44:49;12.68;;;3.25;;
28373;SDS011;15616;40.148;-102.718;2022-09-09T11:47:20;16.60;;;3.30;;
28373;SDS011;15616;40.148;-102.718;2022-09-09T11:49:54;11.27;;;2.90;;
28373;SDS011;15616;40.148;-102.718;2022-09-09T11:52:41;7.97;;;3.08;;
28373;SDS011;15616;40.148;-102.718;2022-09-09T11:55:27;15.32;;;3.20;;
28373;SDS011;15616;40.148;-102.718;2022-09-09T11:58:05;12.43;;;3.13;;
28373;SDS011;15616;40.148;-102.718;2022-09-09T12:00:45;22.25;;;3.28;;
28373;SDS011;15616;40.148;-102.718;2022-09-09T12:03:31;9.52;;;2.85;;
28373;SDS011;15616;40.148;-102.718;2022-09-09T12:06:27;10.55;;;3.05;;
28373;SDS011;15616;40.148;-102.718;2022-09-09T12:09:21;10.98;;;3.03;;
28373;SDS011;15616;40.148;-102.718;2022-09-09T12:11:44;14.38;;;2.75;;
28373;SDS011;15616;40.148;-102.718;2022-09-09T12:14:23;14.52;;;3.17;;
28373;SDS011;15616;40.148;-102.718;2022-09-09T12:22:40;8.80;;;3.10;;
28373;SDS011;15616;40.148;-102.718;2022-09-09T12:33:19;14.05;;;3.55;;
28373;SDS011;15616;40.148;-102.718;2022-09-09T12:35:46;14.85;;;3.20;;
28373;SDS011;15616;40.148;-102.718;2022-09-09T12:38:34;9.75;;;3.20;;
28373;SDS011;15616;40.148;-102.718;2022-09-09T12:41:04;12.82;;;3.42;;
28373;SDS011;15616;40.148;-102.718;2022-09-09T12:43:31;6.63;;;2.72;;
28373;SDS011;15616;40.148;-102.718;2022-09-09T12:46:01;13.60;;;2.95;;
28373;SDS011;15616;40.148;-102.718;2022-09-09T12:51:17;11.18;;;3.03;;
28373;SDS011;15616;40.148;-102.718;2022-09-09T12:53:50;9.90;;;2.95;;
28373;SDS011;15616;40.148;-102.718;2022-09-09T12:56:27;15.13;;;3.70;;
28373;SDS011;15616;40.148;-102.718;2022-09-09T12:58:56;7.43;;;3.03;;
28373;SDS011;15616;40.148;-102.718;2022-09-09T13:01:24;13.05;;;3.00;;
28373;SDS011;15616;40.148;-102.718;2022-09-09T13:03:53;12.05;;;3.22;;
28373;SDS011;15616;40.148;-102.718;2022-09-09T13:06:29;14.52;;;2.90;;
28373;SDS011;15616;40.148;-102.718;2022-09-09T13:08:57;11.00;;;3.13;;
28373;SDS011;15616;40.148;-102.718;2022-09-09T13:13:54;9.80;;;3.05;;
28373;SDS011;15616;40.148;-102.718;2022-09-09T13:16:23;9.15;;;3.08;;
28373;SDS011;15616;40.148;-102.718;2022-09-09T13:19:02;7.55;;;2.83;;
28373;SDS011;15616;40.148;-102.718;2022-09-09T13:21:40;8.48;;;3.30;;
28373;SDS011;15616;40.148;-102.718;2022-09-09T13:24:07;9.07;;;3.00;;
28373;SDS011;15616;40.148;-102.718;2022-09-09T13:26:54;7.05;;;2.83;;
28373;SDS011;15616;40.148;-102.718;2022-09-09T13:29:21;7.82;;;3.03;;
28373;SDS011;15616;40.148;-102.718;2022-09-09T13:31:48;17.20;;;3.53;;
28373;SDS011;15616;40.148;-102.718;2022-09-09T13:34:30;7.75;;;2.72;;
28373;SDS011;15616;40.148;-102.718;2022-09-09T13:36:59;7.10;;;2.60;;
28373;SDS011;15616;40.148;-102.718;2022-09-09T13:39:27;10.10;;;2.97;;
28373;SDS011;15616;40.148;-102.718;2022-09-09T13:41:53;13.27;;;3.20;;
28373;SDS011;15616;40.148;-102.718;2022-09-09T13:44:23;12.15;;;2.80;;
28373;SDS011;15616;40.148;-102.718;2022-09-09T13:47:04;15.07;;;2.65;;
28373;SDS011;15616;40.148;-102.718;2022-09-09T13:49:44;12.80;;;2.95;;
28373;SDS011;15616;40.148;-102.718;2022-09-09T13:54:39;13.95;;;3.28;;
28373;SDS011;15616;40.148;-102.718;2022-09-09T13:57:06;8.30;;;2.75;;
28373;SDS011;15616;40.148;-102.718;2022-09-09T13:59:42;14.52;;;3.35;;
28373;SDS011;15616;40.148;-102.718;2022-09-09T14:02:08;13.32;;;2.75;;
28373;SDS011;15616;40.148;-102.718;2022-09-09T14:04:33;13.80;;;3.10;;
28373;SDS011;15616;40.148;-102.718;2022-09-09T14:07:00;11.25;;;2.80;;
28373;SDS011;15616;40.148;-102.718;2022-09-09T14:09:27;10.50;;;2.80;;
28373;SDS011;15616;40.148;-102.718;2022-09-09T14:11:53;10.43;;;2.92;;
28373;SDS011;15616;40.148;-102.718;2022-09-09T14:14:20;14.98;;;2.72;;
28373;SDS011;15616;40.148;-102.718;2022-09-09T14:16:46;12.07;;;3.20;;
28373;SDS011;15616;40.148;-102.718;2022-09-09T14:19:12;12.70;;;2.63;;
28373;SDS011;15616;40.148;-102.718;2022-09-09T14:21:38;13.80;;;3.08;;
28373;SDS011;15616;40.148;-102.718;2022-09-09T14:24:04;11.30;;;2.95;;
28373;SDS011;15616;40.148;-102.718;2022-09-09T14:26:31;10.32;;;3.33;;
28373;SDS011;15616;40.148;-102.718;2022-09-09T14:28:57;10.48;;;2.85;;
28373;SDS011;15616;40.148;-102.718;2022-09-09T14:31:23;13.15;;;3.10;;
28373;SDS011;15616;40.148;-102.718;2022-09-09T14:33:50;13.30;;;2.95;;
28373;SDS011;15616;40.148;-102.718;2022-09-09T14:36:16;12.20;;;3.05;;
28373;SDS011;15616;40.148;-102.718;2022-09-09T14:38:42;11.63;;;2.92;;
28373;SDS011;15616;40.148;-102.718;2022-09-09T14:41:11;13.70;;;3.30;;
28373;SDS011;15616;40.148;-102.718;2022-09-09T14:46:09;14.60;;;3.47;;
28373;SDS011;15616;40.148;-102.718;2022-09-09T14:48:37;9.60;;;3.08;;
28373;SDS011;15616;40.148;-102.718;2022-09-09T14:51:09;11.13;;;3.25;;
28373;SDS011;15616;40.148;-102.718;2022-09-09T14:53:40;7.63;;;3.08;;
28373;SDS011;15616;40.148;-102.718;2022-09-09T14:56:08;8.02;;;2.92;;
28373;SDS011;15616;40.148;-102.718;2022-09-09T14:58:35;12.40;;;3.38;;
28373;SDS011;15616;40.148;-102.718;2022-09-09T15:01:06;12.35;;;3.22;;
28373;SDS011;15616;40.148;-102.718;2022-09-09T15:03:35;9.57;;;3.22;;
28373;SDS011;15616;40.148;-102.718;2022-09-09T15:06:11;13.02;;;3.15;;
28373;SDS011;15616;40.148;-102.718;2022-09-09T15:08:40;10.00;;;2.88;;
28373;SDS011;15616;40.148;-102.718;2022-09-09T15:11:07;14.50;;;3.10;;
28373;SDS011;15616;40.148;-102.718;2022-09-09T15:13:34;9.00;;;2.92;;
28373;SDS011;15616;40.148;-102.718;2022-09-09T15:18:31;7.13;;;2.97;;
28373;SDS011;15616;40.148;-102.718;2022-09-09T15:20:58;9.98;;;3.05;;
28373;SDS011;15616;40.148;-102.718;2022-09-09T15:23:26;14.43;;;3.20;;
28373;SDS011;15616;40.148;-102.718;2022-09-09T15:25:52;10.73;;;2.72;;
28373;SDS011;15616;40.148;-102.718;2022-09-09T15:28:19;7.78;;;2.88;;
28373;SDS011;15616;40.148;-102.718;2022-09-09T15:30:49;9.30;;;3.13;;
28373;SDS011;15616;40.148;-102.718;2022-09-09T15:33:17;8.40;;;2.92;;
28373;SDS011;15616;40.148;-102.718;2022-09-09T15:35:44;7.88;;;3.28;;
28373;SDS011;15616;40.148;-102.718;2022-09-09T15:38:10;15.30;;;2.80;;
28373;SDS011;15616;40.148;-102.718;2022-09-09T15:40:38;8.07;;;2.88;;
28373;SDS011;15616;40.148;-102.718;2022-09-09T15:43:05;12.48;;;3.03;;
28373;SDS011;15616;40.148;-102.718;2022-09-09T15:45:32;9.18;;;2.85;;
28373;SDS011;15616;40.148;-102.718;2022-09-09T15:47:59;9.70;;;2.90;;
28373;SDS011;15616;40.148;-102.718;2022-09-09T15:50:26;14.07;;;3.08;;
28373;SDS011;15616;40.148;-102.718;2022-09-09T15:52:51;7.55;;;2.83;;
28373;SDS011;15616;40.148;-102.718;2022-09-09T15:55:18;9.23;;;2.78;;
28373;SDS011;15616;40.148;-102.718;2022-09-09T15:57:45;8.82;;;2.90;;
28373;SDS011;15616;40.148;-102.718;2022-09-09T16:00:11;7.82;;;3.40;;
28373;SDS011;15616;40.148;-102.718;2022-09-09T16:02:38;9.65;;;3.17;;
28373;SDS011;15616;40.148;-102.718;2022-09-09T16:05:05;9.40;;;3.55;;
28373;SDS011;15616;40.148;-102.718;2022-09-09T16:07:31;7.60;;;2.92;;
28373;SDS011;15616;40.148;-102.718;2022-09-09T16:09:57;8.57;;;3.00;;
28373;SDS011;15616;40.148;-102.718;2022-09-09T16:12:23;7.22;;;3.00;;
28373;SDS011;15616;40.148;-102.718;2022-09-09T16:14:49;8.35;;;3.00;;
28373;SDS011;15616;40.148;-102.718;2022-09-09T16:17:15;10.73;;;3.08;;
28373;SDS011;15616;40.148;-102.718;2022-09-09T16:19:41;12.07;;;2.88;;
28373;SDS011;15616;40.148;-102.718;2022-09-09T16:22:07;13.15;;;3.05;;
28373;SDS011;15616;40.148;-102.718;2022-09-09T16:24:33;5.63;;;3.00;;
28373;SDS011;15616;40.148;-102.718;2022-09-09T16:26:59;8.27;;;3.00;;
28373;SDS011;15616;40.148;-102.718;2022-09-09T16:29:25;8.60;;;2.83;;
28373;SDS011;15616;40.148;-102.718;2022-09-09T16:31:52;8.35;;;2.75;;
28373;SDS011;15616;40.148;-102.718;2022-09-09T16:34:19;9.32;;;3.17;;
28373;SDS011;15616;40.148;-102.718;2022-09-09T16:36:46;7.03;;;2.55;;
28373;SDS011;15616;40.148;-102.718;2022-09-09T16:39:14;6.88;;;2.50;;
28373;SDS011;15616;40.148;-102.718;2022-09-09T16:41:42;6.57;;;2.67;;
28373;SDS011;15616;40.148;-102.718;2022-09-09T16:44:11;10.73;;;3.13;;
28373;SDS011;15616;40.148;-102.718;2022-09-09T16:46:38;7.30;;;2.90;;
28373;SDS011;15616;40.148;-102.718;2022-09-09T16:49:09;6.85;;;3.13;;